sensor_id;sensor_type;location;lat;lon;timestamp;P1;durP1;ratioP1;P2;durP2;ratioP2
59972;SDS011;55298;-36.624;-64.282;2023-02-28T00:01:31;6.07;;;2.13;;
59972;SDS011;55298;-36.624;-64.282;2023-02-28T00:04:00;8.15;;;2.40;;
59972;SDS011;55298;-36.624;-64.282;2023-02-28T00:06:28;7.75;;;2.30;;
59972;SDS011;55298;-36.624;-64.282;2023-02-28T00:08:56;7.05;;;2.83;;
59972;SDS011;55298;-36.624;-64.282;2023-02-28T00:11:25;6.45;;;2.55;;
59972;SDS011;55298;-36.624;-64.282;2023-02-28T00:13:52;7.57;;;2.47;;
59972;SDS011;55298;-36.624;-64.282;2023-02-28T00:16:21;8.93;;;2.67;;
59972;SDS011;55298;-36.624;-64.282;2023-02-28T00:18:49;5.70;;;2.13;;
59972;SDS011;55298;-36.624;-64.282;2023-02-28T00:21:18;5.80;;;2.20;;
59972;SDS011;55298;-36.624;-64.282;2023-02-28T00:23:47;7.70;;;2.15;;
59972;SDS011;55298;-36.624;-64.282;2023-02-28T00:26:14;9.43;;;2.45;;
59972;SDS011;55298;-36.624;-64.282;2023-02-28T00:28:42;9.07;;;2.30;;
59972;SDS011;55298;-36.624;-64.282;2023-02-28T00:31:10;7.18;;;2.30;;
59972;SDS011;55298;-36.624;-64.282;2023-02-28T00:33:38;6.95;;;2.22;;
59972;SDS011;55298;-36.624;-64.282;2023-02-28T00:36:06;13.13;;;2.33;;
59972;SDS011;55298;-36.624;-64.282;2023-02-28T00:38:36;8.02;;;2.30;;
59972;SDS011;55298;-36.624;-64.282;2023-02-28T00:41:08;7.28;;;2.08;;
59972;SDS011;55298;-36.624;-64.282;2023-02-28T00:43:38;7.88;;;2.33;;
59972;SDS011;55298;-36.624;-64.282;2023-02-28T00:46:06;8.50;;;1.88;;
59972;SDS011;55298;-36.624;-64.282;2023-02-28T00:48:34;6.32;;;1.95;;
59972;SDS011;55298;-36.624;-64.282;2023-02-28T00:51:02;6.05;;;1.90;;
59972;SDS011;55298;-36.624;-64.282;2023-02-28T00:53:30;6.72;;;1.88;;
59972;SDS011;55298;-36.624;-64.282;2023-02-28T00:55:58;8.07;;;1.83;;
59972;SDS011;55298;-36.624;-64.282;2023-02-28T00:58:26;5.43;;;1.90;;
59972;SDS011;55298;-36.624;-64.282;2023-02-28T01:00:54;5.90;;;2.10;;
59972;SDS011;55298;-36.624;-64.282;2023-02-28T01:03:22;3.60;;;2.17;;
59972;SDS011;55298;-36.624;-64.282;2023-02-28T01:05:50;7.18;;;1.75;;
59972;SDS011;55298;-36.624;-64.282;2023-02-28T01:08:19;7.25;;;2.35;;
59972;SDS011;55298;-36.624;-64.282;2023-02-28T01:10:47;6.18;;;1.73;;
59972;SDS011;55298;-36.624;-64.282;2023-02-28T01:13:16;9.40;;;1.98;;
59972;SDS011;55298;-36.624;-64.282;2023-02-28T01:15:54;3.60;;;1.60;;
59972;SDS011;55298;-36.624;-64.282;2023-02-28T01:18:22;5.60;;;1.70;;
59972;SDS011;55298;-36.624;-64.282;2023-02-28T01:20:50;6.85;;;1.88;;
59972;SDS011;55298;-36.624;-64.282;2023-02-28T01:23:19;4.53;;;1.58;;
59972;SDS011;55298;-36.624;-64.282;2023-02-28T01:25:49;3.60;;;1.50;;
59972;SDS011;55298;-36.624;-64.282;2023-02-28T01:28:18;7.68;;;1.80;;
59972;SDS011;55298;-36.624;-64.282;2023-02-28T01:30:49;10.15;;;2.00;;
59972;SDS011;55298;-36.624;-64.282;2023-02-28T01:33:17;8.02;;;1.65;;
59972;SDS011;55298;-36.624;-64.282;2023-02-28T01:35:46;6.22;;;1.80;;
59972;SDS011;55298;-36.624;-64.282;2023-02-28T01:38:14;10.15;;;2.35;;
59972;SDS011;55298;-36.624;-64.282;2023-02-28T01:40:42;7.15;;;2.10;;
59972;SDS011;55298;-36.624;-64.282;2023-02-28T01:43:19;8.23;;;2.30;;
59972;SDS011;55298;-36.624;-64.282;2023-02-28T01:45:51;11.20;;;1.92;;
59972;SDS011;55298;-36.624;-64.282;2023-02-28T01:48:21;8.82;;;1.88;;
59972;SDS011;55298;-36.624;-64.282;2023-02-28T01:50:58;6.03;;;1.73;;
59972;SDS011;55298;-36.624;-64.282;2023-02-28T01:53:34;7.13;;;1.77;;
59972;SDS011;55298;-36.624;-64.282;2023-02-28T01:56:07;4.05;;;1.65;;
59972;SDS011;55298;-36.624;-64.282;2023-02-28T01:58:38;5.18;;;2.00;;
59972;SDS011;55298;-36.624;-64.282;2023-02-28T02:01:06;6.47;;;2.00;;
59972;SDS011;55298;-36.624;-64.282;2023-02-28T02:03:34;6.47;;;1.75;;
59972;SDS011;55298;-36.624;-64.282;2023-02-28T02:06:02;6.72;;;1.65;;
59972;SDS011;55298;-36.624;-64.282;2023-02-28T02:08:30;5.70;;;1.60;;
59972;SDS011;55298;-36.624;-64.282;2023-02-28T02:10:59;7.40;;;2.03;;
59972;SDS011;55298;-36.624;-64.282;2023-02-28T02:16:34;2.78;;;2.20;;
59972;SDS011;55298;-36.624;-64.282;2023-02-28T02:19:33;6.45;;;1.80;;
59972;SDS011;55298;-36.624;-64.282;2023-02-28T02:22:21;9.63;;;2.03;;
59972;SDS011;55298;-36.624;-64.282;2023-02-28T02:30:57;10.13;;;1.90;;
59972;SDS011;55298;-36.624;-64.282;2023-02-28T02:36:36;7.30;;;2.10;;
59972;SDS011;55298;-36.624;-64.282;2023-02-28T02:39:17;5.68;;;2.17;;
59972;SDS011;55298;-36.624;-64.282;2023-02-28T02:42:00;6.63;;;2.03;;
59972;SDS011;55298;-36.624;-64.282;2023-02-28T02:44:36;7.72;;;2.17;;
59972;SDS011;55298;-36.624;-64.282;2023-02-28T02:47:13;6.25;;;1.90;;
59972;SDS011;55298;-36.624;-64.282;2023-02-28T02:49:48;7.85;;;2.00;;
59972;SDS011;55298;-36.624;-64.282;2023-02-28T02:52:20;5.75;;;1.90;;
59972;SDS011;55298;-36.624;-64.282;2023-02-28T02:54:52;8.93;;;2.08;;
59972;SDS011;55298;-36.624;-64.282;2023-02-28T02:57:23;5.70;;;2.08;;
59972;SDS011;55298;-36.624;-64.282;2023-02-28T02:59:58;8.00;;;2.10;;
59972;SDS011;55298;-36.624;-64.282;2023-02-28T03:02:30;6.28;;;2.10;;
59972;SDS011;55298;-36.624;-64.282;2023-02-28T03:05:03;6.57;;;1.92;;
59972;SDS011;55298;-36.624;-64.282;2023-02-28T03:07:34;4.43;;;2.08;;
59972;SDS011;55298;-36.624;-64.282;2023-02-28T03:10:02;5.70;;;1.80;;
59972;SDS011;55298;-36.624;-64.282;2023-02-28T03:12:52;4.93;;;2.30;;
59972;SDS011;55298;-36.624;-64.282;2023-02-28T03:15:32;4.28;;;2.00;;
59972;SDS011;55298;-36.624;-64.282;2023-02-28T03:18:18;7.25;;;2.13;;
59972;SDS011;55298;-36.624;-64.282;2023-02-28T03:23:53;6.43;;;2.30;;
59972;SDS011;55298;-36.624;-64.282;2023-02-28T03:26:30;9.13;;;2.50;;
59972;SDS011;55298;-36.624;-64.282;2023-02-28T03:31:45;7.75;;;2.22;;
59972;SDS011;55298;-36.624;-64.282;2023-02-28T03:34:24;7.10;;;2.25;;
59972;SDS011;55298;-36.624;-64.282;2023-02-28T03:37:00;5.53;;;2.13;;
59972;SDS011;55298;-36.624;-64.282;2023-02-28T03:39:39;6.20;;;2.40;;
59972;SDS011;55298;-36.624;-64.282;2023-02-28T03:42:22;5.13;;;2.33;;
59972;SDS011;55298;-36.624;-64.282;2023-02-28T03:44:57;7.15;;;2.08;;
59972;SDS011;55298;-36.624;-64.282;2023-02-28T03:47:45;5.85;;;2.00;;
59972;SDS011;55298;-36.624;-64.282;2023-02-28T03:50:20;8.75;;;2.33;;
59972;SDS011;55298;-36.624;-64.282;2023-02-28T03:53:11;7.10;;;1.92;;
59972;SDS011;55298;-36.624;-64.282;2023-02-28T03:56:02;6.32;;;2.45;;
59972;SDS011;55298;-36.624;-64.282;2023-02-28T04:01:20;6.65;;;2.38;;
59972;SDS011;55298;-36.624;-64.282;2023-02-28T04:03:52;7.35;;;2.42;;
59972;SDS011;55298;-36.624;-64.282;2023-02-28T04:06:21;7.00;;;2.13;;
59972;SDS011;55298;-36.624;-64.282;2023-02-28T04:08:51;7.63;;;2.30;;
59972;SDS011;55298;-36.624;-64.282;2023-02-28T04:11:21;6.45;;;2.15;;
59972;SDS011;55298;-36.624;-64.282;2023-02-28T04:13:52;6.67;;;2.40;;
59972;SDS011;55298;-36.624;-64.282;2023-02-28T04:16:20;5.05;;;2.10;;
59972;SDS011;55298;-36.624;-64.282;2023-02-28T04:18:48;5.88;;;1.95;;
59972;SDS011;55298;-36.624;-64.282;2023-02-28T04:21:15;8.88;;;2.58;;
59972;SDS011;55298;-36.624;-64.282;2023-02-28T04:23:46;8.02;;;2.25;;
59972;SDS011;55298;-36.624;-64.282;2023-02-28T04:26:14;6.80;;;2.08;;
59972;SDS011;55298;-36.624;-64.282;2023-02-28T04:28:41;8.98;;;2.38;;
59972;SDS011;55298;-36.624;-64.282;2023-02-28T04:31:09;6.00;;;2.15;;
59972;SDS011;55298;-36.624;-64.282;2023-02-28T04:33:38;5.03;;;2.08;;
59972;SDS011;55298;-36.624;-64.282;2023-02-28T04:36:06;7.63;;;2.30;;
59972;SDS011;55298;-36.624;-64.282;2023-02-28T04:38:35;4.93;;;2.38;;
59972;SDS011;55298;-36.624;-64.282;2023-02-28T04:41:04;7.20;;;2.40;;
59972;SDS011;55298;-36.624;-64.282;2023-02-28T04:43:32;6.95;;;2.17;;
59972;SDS011;55298;-36.624;-64.282;2023-02-28T04:46:01;6.88;;;2.10;;
59972;SDS011;55298;-36.624;-64.282;2023-02-28T04:48:31;9.50;;;2.30;;
59972;SDS011;55298;-36.624;-64.282;2023-02-28T04:51:02;8.73;;;2.40;;
59972;SDS011;55298;-36.624;-64.282;2023-02-28T04:53:32;5.00;;;2.25;;
59972;SDS011;55298;-36.624;-64.282;2023-02-28T04:56:00;8.30;;;2.30;;
59972;SDS011;55298;-36.624;-64.282;2023-02-28T04:58:28;6.72;;;2.17;;
59972;SDS011;55298;-36.624;-64.282;2023-02-28T05:01:01;6.45;;;2.17;;
59972;SDS011;55298;-36.624;-64.282;2023-02-28T05:03:39;5.82;;;2.30;;
59972;SDS011;55298;-36.624;-64.282;2023-02-28T05:06:07;7.53;;;2.30;;
59972;SDS011;55298;-36.624;-64.282;2023-02-28T05:08:36;14.23;;;3.42;;
59972;SDS011;55298;-36.624;-64.282;2023-02-28T05:11:05;6.38;;;2.35;;
59972;SDS011;55298;-36.624;-64.282;2023-02-28T05:13:44;8.73;;;2.28;;
59972;SDS011;55298;-36.624;-64.282;2023-02-28T05:16:12;8.73;;;2.47;;
59972;SDS011;55298;-36.624;-64.282;2023-02-28T05:18:40;5.53;;;2.03;;
59972;SDS011;55298;-36.624;-64.282;2023-02-28T05:23:50;7.20;;;2.08;;
59972;SDS011;55298;-36.624;-64.282;2023-02-28T05:26:19;4.65;;;2.10;;
59972;SDS011;55298;-36.624;-64.282;2023-02-28T05:28:47;5.90;;;2.30;;
59972;SDS011;55298;-36.624;-64.282;2023-02-28T05:31:14;6.18;;;2.33;;
59972;SDS011;55298;-36.624;-64.282;2023-02-28T05:33:42;7.07;;;2.30;;
59972;SDS011;55298;-36.624;-64.282;2023-02-28T05:36:10;11.55;;;3.08;;
59972;SDS011;55298;-36.624;-64.282;2023-02-28T05:38:38;5.30;;;2.40;;
59972;SDS011;55298;-36.624;-64.282;2023-02-28T05:41:06;8.30;;;3.25;;
59972;SDS011;55298;-36.624;-64.282;2023-02-28T05:43:36;7.38;;;2.35;;
59972;SDS011;55298;-36.624;-64.282;2023-02-28T05:46:05;4.63;;;2.22;;
59972;SDS011;55298;-36.624;-64.282;2023-02-28T05:48:34;7.70;;;2.45;;
59972;SDS011;55298;-36.624;-64.282;2023-02-28T05:51:04;7.05;;;2.47;;
59972;SDS011;55298;-36.624;-64.282;2023-02-28T05:53:32;7.05;;;2.55;;
59972;SDS011;55298;-36.624;-64.282;2023-02-28T05:56:00;5.78;;;2.45;;
59972;SDS011;55298;-36.624;-64.282;2023-02-28T05:58:28;5.50;;;2.40;;
59972;SDS011;55298;-36.624;-64.282;2023-02-28T06:00:56;6.13;;;2.60;;
59972;SDS011;55298;-36.624;-64.282;2023-02-28T06:03:25;8.98;;;2.50;;
59972;SDS011;55298;-36.624;-64.282;2023-02-28T06:05:53;7.65;;;2.33;;
59972;SDS011;55298;-36.624;-64.282;2023-02-28T06:08:21;7.60;;;2.53;;
59972;SDS011;55298;-36.624;-64.282;2023-02-28T06:10:50;4.45;;;2.50;;
59972;SDS011;55298;-36.624;-64.282;2023-02-28T06:13:18;5.03;;;2.50;;
59972;SDS011;55298;-36.624;-64.282;2023-02-28T06:15:46;9.13;;;2.53;;
59972;SDS011;55298;-36.624;-64.282;2023-02-28T06:18:14;11.15;;;2.40;;
59972;SDS011;55298;-36.624;-64.282;2023-02-28T06:20:41;6.80;;;2.50;;
59972;SDS011;55298;-36.624;-64.282;2023-02-28T06:23:10;6.13;;;2.47;;
59972;SDS011;55298;-36.624;-64.282;2023-02-28T06:25:37;7.47;;;2.83;;
59972;SDS011;55298;-36.624;-64.282;2023-02-28T06:28:05;4.13;;;2.45;;
59972;SDS011;55298;-36.624;-64.282;2023-02-28T06:30:33;5.13;;;2.72;;
59972;SDS011;55298;-36.624;-64.282;2023-02-28T06:33:00;11.90;;;2.80;;
59972;SDS011;55298;-36.624;-64.282;2023-02-28T06:35:28;8.63;;;2.55;;
59972;SDS011;55298;-36.624;-64.282;2023-02-28T06:37:56;6.20;;;2.67;;
59972;SDS011;55298;-36.624;-64.282;2023-02-28T06:40:24;8.90;;;3.03;;
59972;SDS011;55298;-36.624;-64.282;2023-02-28T06:42:52;8.73;;;2.92;;
59972;SDS011;55298;-36.624;-64.282;2023-02-28T06:45:19;6.95;;;2.58;;
59972;SDS011;55298;-36.624;-64.282;2023-02-28T06:47:47;9.57;;;2.97;;
59972;SDS011;55298;-36.624;-64.282;2023-02-28T06:50:17;8.15;;;2.72;;
59972;SDS011;55298;-36.624;-64.282;2023-02-28T06:52:46;12.98;;;3.72;;
59972;SDS011;55298;-36.624;-64.282;2023-02-28T06:57:46;7.65;;;2.72;;
59972;SDS011;55298;-36.624;-64.282;2023-02-28T07:00:17;8.43;;;3.00;;
59972;SDS011;55298;-36.624;-64.282;2023-02-28T07:02:44;10.00;;;2.92;;
59972;SDS011;55298;-36.624;-64.282;2023-02-28T07:05:13;7.75;;;2.85;;
59972;SDS011;55298;-36.624;-64.282;2023-02-28T07:07:40;7.60;;;2.97;;
59972;SDS011;55298;-36.624;-64.282;2023-02-28T07:10:10;11.25;;;3.20;;
59972;SDS011;55298;-36.624;-64.282;2023-02-28T07:12:41;8.68;;;3.05;;
59972;SDS011;55298;-36.624;-64.282;2023-02-28T07:15:09;10.18;;;3.08;;
59972;SDS011;55298;-36.624;-64.282;2023-02-28T07:17:37;9.27;;;3.60;;
59972;SDS011;55298;-36.624;-64.282;2023-02-28T07:20:05;5.82;;;3.03;;
59972;SDS011;55298;-36.624;-64.282;2023-02-28T07:22:33;8.23;;;3.50;;
59972;SDS011;55298;-36.624;-64.282;2023-02-28T07:25:01;8.93;;;3.35;;
59972;SDS011;55298;-36.624;-64.282;2023-02-28T07:27:29;9.50;;;3.28;;
59972;SDS011;55298;-36.624;-64.282;2023-02-28T07:29:56;9.32;;;3.03;;
59972;SDS011;55298;-36.624;-64.282;2023-02-28T07:32:27;9.23;;;3.38;;
59972;SDS011;55298;-36.624;-64.282;2023-02-28T07:34:55;15.98;;;3.30;;
59972;SDS011;55298;-36.624;-64.282;2023-02-28T07:37:22;10.10;;;3.20;;
59972;SDS011;55298;-36.624;-64.282;2023-02-28T07:39:50;7.30;;;3.40;;
59972;SDS011;55298;-36.624;-64.282;2023-02-28T07:42:18;9.65;;;3.28;;
59972;SDS011;55298;-36.624;-64.282;2023-02-28T07:44:46;7.45;;;3.40;;
59972;SDS011;55298;-36.624;-64.282;2023-02-28T07:47:16;6.90;;;3.28;;
59972;SDS011;55298;-36.624;-64.282;2023-02-28T07:49:44;7.88;;;3.17;;
59972;SDS011;55298;-36.624;-64.282;2023-02-28T07:52:12;9.48;;;3.13;;
59972;SDS011;55298;-36.624;-64.282;2023-02-28T07:54:40;9.70;;;3.70;;
59972;SDS011;55298;-36.624;-64.282;2023-02-28T07:57:07;12.85;;;3.55;;
59972;SDS011;55298;-36.624;-64.282;2023-02-28T07:59:35;14.50;;;3.35;;
59972;SDS011;55298;-36.624;-64.282;2023-02-28T08:02:03;9.98;;;3.35;;
59972;SDS011;55298;-36.624;-64.282;2023-02-28T08:04:32;8.40;;;3.10;;
59972;SDS011;55298;-36.624;-64.282;2023-02-28T08:07:01;7.57;;;3.60;;
59972;SDS011;55298;-36.624;-64.282;2023-02-28T08:09:28;10.15;;;2.85;;
59972;SDS011;55298;-36.624;-64.282;2023-02-28T08:11:56;7.25;;;3.03;;
59972;SDS011;55298;-36.624;-64.282;2023-02-28T08:14:24;6.10;;;3.00;;
59972;SDS011;55298;-36.624;-64.282;2023-02-28T08:16:51;6.68;;;3.15;;
59972;SDS011;55298;-36.624;-64.282;2023-02-28T08:19:20;8.07;;;3.42;;
59972;SDS011;55298;-36.624;-64.282;2023-02-28T08:21:47;9.13;;;3.53;;
59972;SDS011;55298;-36.624;-64.282;2023-02-28T08:24:15;9.80;;;3.17;;
59972;SDS011;55298;-36.624;-64.282;2023-02-28T08:26:43;6.50;;;3.70;;
59972;SDS011;55298;-36.624;-64.282;2023-02-28T08:29:10;10.10;;;3.58;;
59972;SDS011;55298;-36.624;-64.282;2023-02-28T08:31:38;8.82;;;3.45;;
59972;SDS011;55298;-36.624;-64.282;2023-02-28T08:34:06;6.32;;;3.03;;
59972;SDS011;55298;-36.624;-64.282;2023-02-28T08:36:36;8.00;;;3.10;;
59972;SDS011;55298;-36.624;-64.282;2023-02-28T08:39:04;11.27;;;3.70;;
59972;SDS011;55298;-36.624;-64.282;2023-02-28T08:41:32;9.38;;;3.45;;
59972;SDS011;55298;-36.624;-64.282;2023-02-28T08:44:00;9.00;;;3.42;;
59972;SDS011;55298;-36.624;-64.282;2023-02-28T08:46:28;7.25;;;3.35;;
59972;SDS011;55298;-36.624;-64.282;2023-02-28T08:48:56;8.80;;;3.70;;
59972;SDS011;55298;-36.624;-64.282;2023-02-28T08:51:27;9.30;;;3.47;;
59972;SDS011;55298;-36.624;-64.282;2023-02-28T08:53:55;9.00;;;3.13;;
59972;SDS011;55298;-36.624;-64.282;2023-02-28T08:56:26;10.48;;;3.60;;
59972;SDS011;55298;-36.624;-64.282;2023-02-28T08:58:55;10.57;;;3.55;;
59972;SDS011;55298;-36.624;-64.282;2023-02-28T09:01:25;11.95;;;4.25;;
59972;SDS011;55298;-36.624;-64.282;2023-02-28T09:03:56;9.52;;;3.47;;
59972;SDS011;55298;-36.624;-64.282;2023-02-28T09:06:27;5.38;;;3.30;;
59972;SDS011;55298;-36.624;-64.282;2023-02-28T09:08:56;10.68;;;3.38;;
59972;SDS011;55298;-36.624;-64.282;2023-02-28T09:11:25;6.97;;;3.30;;
59972;SDS011;55298;-36.624;-64.282;2023-02-28T09:13:53;8.80;;;3.40;;
59972;SDS011;55298;-36.624;-64.282;2023-02-28T09:16:21;10.40;;;3.50;;
59972;SDS011;55298;-36.624;-64.282;2023-02-28T09:18:49;10.73;;;3.92;;
59972;SDS011;55298;-36.624;-64.282;2023-02-28T09:21:17;9.35;;;3.67;;
59972;SDS011;55298;-36.624;-64.282;2023-02-28T09:23:46;7.80;;;2.95;;
59972;SDS011;55298;-36.624;-64.282;2023-02-28T09:26:18;7.55;;;3.60;;
59972;SDS011;55298;-36.624;-64.282;2023-02-28T09:28:48;7.67;;;3.23;;
59972;SDS011;55298;-36.624;-64.282;2023-02-28T09:31:18;7.70;;;3.28;;
59972;SDS011;55298;-36.624;-64.282;2023-02-28T09:33:48;8.02;;;3.88;;
59972;SDS011;55298;-36.624;-64.282;2023-02-28T09:36:16;9.13;;;3.72;;
59972;SDS011;55298;-36.624;-64.282;2023-02-28T09:38:44;10.63;;;3.70;;
59972;SDS011;55298;-36.624;-64.282;2023-02-28T09:41:14;8.88;;;3.60;;
59972;SDS011;55298;-36.624;-64.282;2023-02-28T09:43:49;9.05;;;3.22;;
59972;SDS011;55298;-36.624;-64.282;2023-02-28T09:46:25;8.75;;;3.67;;
59972;SDS011;55298;-36.624;-64.282;2023-02-28T09:49:00;11.05;;;3.92;;
59972;SDS011;55298;-36.624;-64.282;2023-02-28T09:54:29;11.27;;;4.93;;
59972;SDS011;55298;-36.624;-64.282;2023-02-28T09:57:00;12.57;;;3.80;;
59972;SDS011;55298;-36.624;-64.282;2023-02-28T09:59:41;12.85;;;4.40;;
59972;SDS011;55298;-36.624;-64.282;2023-02-28T10:02:23;11.93;;;4.30;;
59972;SDS011;55298;-36.624;-64.282;2023-02-28T10:05:15;14.38;;;4.07;;
59972;SDS011;55298;-36.624;-64.282;2023-02-28T10:07:56;12.93;;;3.70;;
59972;SDS011;55298;-36.624;-64.282;2023-02-28T10:10:48;10.48;;;4.00;;
59972;SDS011;55298;-36.624;-64.282;2023-02-28T10:13:24;12.20;;;4.72;;
59972;SDS011;55298;-36.624;-64.282;2023-02-28T10:16:10;11.10;;;3.75;;
59972;SDS011;55298;-36.624;-64.282;2023-02-28T10:18:46;10.85;;;4.20;;
59972;SDS011;55298;-36.624;-64.282;2023-02-28T10:21:28;11.93;;;3.83;;
59972;SDS011;55298;-36.624;-64.282;2023-02-28T10:24:17;13.55;;;4.38;;
59972;SDS011;55298;-36.624;-64.282;2023-02-28T10:27:30;11.15;;;3.90;;
59972;SDS011;55298;-36.624;-64.282;2023-02-28T10:29:57;12.98;;;3.88;;
59972;SDS011;55298;-36.624;-64.282;2023-02-28T10:32:27;16.55;;;4.30;;
59972;SDS011;55298;-36.624;-64.282;2023-02-28T10:34:58;8.20;;;3.80;;
59972;SDS011;55298;-36.624;-64.282;2023-02-28T10:37:32;12.40;;;4.82;;
59972;SDS011;55298;-36.624;-64.282;2023-02-28T10:40:04;10.73;;;4.85;;
59972;SDS011;55298;-36.624;-64.282;2023-02-28T10:45:37;14.25;;;4.25;;
59972;SDS011;55298;-36.624;-64.282;2023-02-28T10:48:26;11.35;;;3.88;;
59972;SDS011;55298;-36.624;-64.282;2023-02-28T10:51:00;13.38;;;4.47;;
59972;SDS011;55298;-36.624;-64.282;2023-02-28T10:53:38;15.32;;;4.82;;
59972;SDS011;55298;-36.624;-64.282;2023-02-28T10:56:18;18.77;;;5.28;;
59972;SDS011;55298;-36.624;-64.282;2023-02-28T11:01:42;8.50;;;4.22;;
59972;SDS011;55298;-36.624;-64.282;2023-02-28T11:07:06;11.52;;;4.25;;
59972;SDS011;55298;-36.624;-64.282;2023-02-28T11:09:48;11.90;;;3.78;;
59972;SDS011;55298;-36.624;-64.282;2023-02-28T11:12:22;12.73;;;4.07;;
59972;SDS011;55298;-36.624;-64.282;2023-02-28T11:15:23;9.65;;;3.83;;
59972;SDS011;55298;-36.624;-64.282;2023-02-28T11:18:14;13.60;;;4.53;;
59972;SDS011;55298;-36.624;-64.282;2023-02-28T11:20:50;14.27;;;4.22;;
59972;SDS011;55298;-36.624;-64.282;2023-02-28T11:23:22;17.23;;;5.03;;
59972;SDS011;55298;-36.624;-64.282;2023-02-28T11:25:54;11.88;;;4.10;;
59972;SDS011;55298;-36.624;-64.282;2023-02-28T11:31:09;11.30;;;4.43;;
59972;SDS011;55298;-36.624;-64.282;2023-02-28T11:33:52;13.70;;;4.43;;
59972;SDS011;55298;-36.624;-64.282;2023-02-28T11:36:24;10.50;;;4.10;;
59972;SDS011;55298;-36.624;-64.282;2023-02-28T11:38:57;11.10;;;4.43;;
59972;SDS011;55298;-36.624;-64.282;2023-02-28T11:44:43;12.25;;;4.18;;
59972;SDS011;55298;-36.624;-64.282;2023-02-28T11:47:27;11.13;;;4.25;;
59972;SDS011;55298;-36.624;-64.282;2023-02-28T11:53:19;9.05;;;3.83;;
59972;SDS011;55298;-36.624;-64.282;2023-02-28T11:59:24;13.85;;;4.30;;
59972;SDS011;55298;-36.624;-64.282;2023-02-28T12:05:19;16.52;;;5.55;;
59972;SDS011;55298;-36.624;-64.282;2023-02-28T12:17:21;10.93;;;4.28;;
59972;SDS011;55298;-36.624;-64.282;2023-02-28T12:20:05;7.70;;;3.60;;
59972;SDS011;55298;-36.624;-64.282;2023-02-28T12:28:40;8.07;;;4.00;;
59972;SDS011;55298;-36.624;-64.282;2023-02-28T12:31:18;9.63;;;3.95;;
59972;SDS011;55298;-36.624;-64.282;2023-02-28T12:33:51;9.73;;;4.40;;
59972;SDS011;55298;-36.624;-64.282;2023-02-28T12:36:23;9.23;;;4.13;;
59972;SDS011;55298;-36.624;-64.282;2023-02-28T12:38:58;8.02;;;4.05;;
59972;SDS011;55298;-36.624;-64.282;2023-02-28T12:44:23;13.30;;;3.70;;
59972;SDS011;55298;-36.624;-64.282;2023-02-28T12:47:14;12.55;;;4.30;;
59972;SDS011;55298;-36.624;-64.282;2023-02-28T12:58:32;11.32;;;4.22;;
59972;SDS011;55298;-36.624;-64.282;2023-02-28T13:09:51;15.90;;;4.88;;
59972;SDS011;55298;-36.624;-64.282;2023-02-28T13:12:22;9.30;;;4.07;;
59972;SDS011;55298;-36.624;-64.282;2023-02-28T13:15:01;12.40;;;4.65;;
59972;SDS011;55298;-36.624;-64.282;2023-02-28T13:17:40;12.02;;;3.90;;
59972;SDS011;55298;-36.624;-64.282;2023-02-28T13:20:16;11.98;;;3.72;;
59972;SDS011;55298;-36.624;-64.282;2023-02-28T13:28:13;7.07;;;3.15;;
59972;SDS011;55298;-36.624;-64.282;2023-02-28T13:31:09;12.95;;;3.60;;
59972;SDS011;55298;-36.624;-64.282;2023-02-28T13:36:40;7.00;;;4.00;;
59972;SDS011;55298;-36.624;-64.282;2023-02-28T13:42:30;9.35;;;5.03;;
59972;SDS011;55298;-36.624;-64.282;2023-02-28T13:47:55;5.97;;;3.28;;
59972;SDS011;55298;-36.624;-64.282;2023-02-28T13:56:19;7.50;;;3.50;;
59972;SDS011;55298;-36.624;-64.282;2023-02-28T13:59:03;7.10;;;3.65;;
59972;SDS011;55298;-36.624;-64.282;2023-02-28T14:01:48;9.88;;;3.30;;
59972;SDS011;55298;-36.624;-64.282;2023-02-28T14:07:32;6.68;;;3.13;;
59972;SDS011;55298;-36.624;-64.282;2023-02-28T14:10:15;5.78;;;3.33;;
59972;SDS011;55298;-36.624;-64.282;2023-02-28T14:16:05;5.80;;;3.30;;
59972;SDS011;55298;-36.624;-64.282;2023-02-28T14:18:37;5.57;;;2.67;;
59972;SDS011;55298;-36.624;-64.282;2023-02-28T14:21:19;7.82;;;3.88;;
59972;SDS011;55298;-36.624;-64.282;2023-02-28T14:32:35;8.07;;;3.15;;
59972;SDS011;55298;-36.624;-64.282;2023-02-28T14:38:23;4.30;;;3.28;;
59972;SDS011;55298;-36.624;-64.282;2023-02-28T14:41:14;6.22;;;4.00;;
59972;SDS011;55298;-36.624;-64.282;2023-02-28T14:43:53;9.45;;;3.60;;
59972;SDS011;55298;-36.624;-64.282;2023-02-28T14:46:35;5.88;;;3.30;;
59972;SDS011;55298;-36.624;-64.282;2023-02-28T14:49:20;6.32;;;3.00;;
59972;SDS011;55298;-36.624;-64.282;2023-02-28T14:54:40;9.90;;;4.75;;
59972;SDS011;55298;-36.624;-64.282;2023-02-28T15:00:26;7.03;;;3.50;;
59972;SDS011;55298;-36.624;-64.282;2023-02-28T15:02:43;5.35;;;2.90;;
59972;SDS011;55298;-36.624;-64.282;2023-02-28T15:05:25;6.18;;;3.22;;
59972;SDS011;55298;-36.624;-64.282;2023-02-28T15:08:03;6.53;;;4.30;;
59972;SDS011;55298;-36.624;-64.282;2023-02-28T15:10:40;6.20;;;3.20;;
59972;SDS011;55298;-36.624;-64.282;2023-02-28T15:13:21;5.22;;;3.10;;
59972;SDS011;55298;-36.624;-64.282;2023-02-28T15:16:01;6.28;;;3.72;;
59972;SDS011;55298;-36.624;-64.282;2023-02-28T15:21:21;6.45;;;3.42;;
59972;SDS011;55298;-36.624;-64.282;2023-02-28T15:23:56;5.50;;;2.80;;
59972;SDS011;55298;-36.624;-64.282;2023-02-28T15:26:30;9.23;;;4.80;;
59972;SDS011;55298;-36.624;-64.282;2023-02-28T15:29:01;7.03;;;3.83;;
59972;SDS011;55298;-36.624;-64.282;2023-02-28T15:31:40;7.65;;;3.53;;
59972;SDS011;55298;-36.624;-64.282;2023-02-28T15:34:17;4.20;;;3.13;;
59972;SDS011;55298;-36.624;-64.282;2023-02-28T15:36:48;6.22;;;3.90;;
59972;SDS011;55298;-36.624;-64.282;2023-02-28T15:39:20;5.35;;;4.05;;
59972;SDS011;55298;-36.624;-64.282;2023-02-28T15:44:49;5.45;;;3.20;;
59972;SDS011;55298;-36.624;-64.282;2023-02-28T15:47:19;4.82;;;3.30;;
59972;SDS011;55298;-36.624;-64.282;2023-02-28T15:49:49;4.45;;;3.50;;
59972;SDS011;55298;-36.624;-64.282;2023-02-28T15:52:24;4.93;;;2.85;;
59972;SDS011;55298;-36.624;-64.282;2023-02-28T15:55:11;6.15;;;3.80;;
59972;SDS011;55298;-36.624;-64.282;2023-02-28T15:57:49;5.50;;;3.33;;
59972;SDS011;55298;-36.624;-64.282;2023-02-28T16:00:20;5.20;;;2.80;;
59972;SDS011;55298;-36.624;-64.282;2023-02-28T16:02:51;6.05;;;5.43;;
59972;SDS011;55298;-36.624;-64.282;2023-02-28T16:05:20;4.80;;;4.10;;
59972;SDS011;55298;-36.624;-64.282;2023-02-28T16:07:57;5.25;;;2.85;;
59972;SDS011;55298;-36.624;-64.282;2023-02-28T16:10:27;6.50;;;3.47;;
59972;SDS011;55298;-36.624;-64.282;2023-02-28T16:12:57;4.50;;;3.08;;
59972;SDS011;55298;-36.624;-64.282;2023-02-28T16:15:27;5.20;;;3.10;;
59972;SDS011;55298;-36.624;-64.282;2023-02-28T16:17:57;5.35;;;3.10;;
59972;SDS011;55298;-36.624;-64.282;2023-02-28T16:20:28;6.70;;;3.58;;
59972;SDS011;55298;-36.624;-64.282;2023-02-28T16:22:57;5.65;;;3.90;;
59972;SDS011;55298;-36.624;-64.282;2023-02-28T16:25:29;6.68;;;3.20;;
59972;SDS011;55298;-36.624;-64.282;2023-02-28T16:28:03;5.35;;;3.30;;
59972;SDS011;55298;-36.624;-64.282;2023-02-28T16:30:42;4.47;;;3.40;;
59972;SDS011;55298;-36.624;-64.282;2023-02-28T16:33:10;6.10;;;3.30;;
59972;SDS011;55298;-36.624;-64.282;2023-02-28T16:35:37;3.55;;;2.90;;
59972;SDS011;55298;-36.624;-64.282;2023-02-28T16:38:05;4.32;;;2.97;;
59972;SDS011;55298;-36.624;-64.282;2023-02-28T16:40:34;6.30;;;3.10;;
59972;SDS011;55298;-36.624;-64.282;2023-02-28T16:43:07;3.33;;;2.80;;
59972;SDS011;55298;-36.624;-64.282;2023-02-28T16:45:54;5.30;;;3.92;;
59972;SDS011;55298;-36.624;-64.282;2023-02-28T16:48:24;4.20;;;3.80;;
59972;SDS011;55298;-36.624;-64.282;2023-02-28T16:50:52;3.92;;;3.05;;
59972;SDS011;55298;-36.624;-64.282;2023-02-28T16:53:19;6.78;;;3.40;;
59972;SDS011;55298;-36.624;-64.282;2023-02-28T16:55:47;4.50;;;2.85;;